Flight Track Log - Related Links

Times and Time Zones

All times are in EDT time to prevent confusion due to time zone crossing. See the BWA446 flight status page for this flight to view local times or setup timezone preferences in your user account.

Time Position Orientation Groundspeed Altitude Reporting Facility
EDT Latitude Longitude Course Direction KTS MPH feet Rate Location/Type
Tue 07:41:00 PM 10.8161 -61.1747 36° Northeast  Level Estimated
Tue 07:42:00 PM 10.8712 -61.1340 36° Northeast  Level Estimated
Tue 07:43:00 PM 10.9264 -61.0933 36° Northeast  Level Estimated
Tue 07:44:00 PM 10.9816 -61.0526 36° Northeast  Level Estimated
Tue 07:45:00 PM 11.0367 -61.0119 36° Northeast  Level Estimated
Tue 07:46:00 PM 11.0918 -60.9711 36° Northeast  Level Estimated
Tue 07:47:00 PM 11.1470 -60.9304 36° Northeast  Level Estimated
Tue 07:48:00 PM 11.2021 -60.8896 36° Northeast  Level Estimated
Tue 07:49:00 PM 11.2572 -60.8488 36° Northeast  Level Estimated
Tue 07:50:00 PM 11.3124 -60.8080 36° Northeast  Level Estimated
Tue 07:51:00 PM 11.3675 -60.7672 36° Northeast  Level Estimated
Tue 07:52:00 PM 11.4226 -60.7264 36° Northeast  Level Estimated
Tue 07:53:00 PM 11.4777 -60.6855 36° Northeast  Level Estimated
Tue 07:54:00 PM 11.5328 -60.6446 36° Northeast  Level Estimated
Tue 07:55:00 PM 11.5879 -60.6038 36° Northeast  Level Estimated
Tue 07:56:00 PM 11.6430 -60.5629 36° Northeast  Level Estimated
Tue 07:57:00 PM 11.6980 -60.5220 36° Northeast  Level Estimated
Tue 07:58:00 PM 11.7531 -60.4810 36° Northeast  Level Estimated
Tue 07:59:00 PM 11.8082 -60.4401 36° Northeast  Level Estimated
Tue 08:00:00 PM 11.8632 -60.3991 36° Northeast  Level Estimated
Tue 08:01:00 PM 11.9183 -60.3581 36° Northeast  Level Estimated
Tue 08:02:00 PM 11.9733 -60.3171 36° Northeast  Level Estimated
Tue 08:03:00 PM 12.0284 -60.2761 36° Northeast  Level Estimated
Tue 08:04:00 PM 12.0834 -60.2351 36° Northeast  Level Estimated
Tue 08:05:00 PM 12.1385 -60.1940 36° Northeast  Level Estimated
Tue 08:06:00 PM 12.1935 -60.1530 36° Northeast  Level Estimated
Tue 08:07:00 PM 12.2485 -60.1119 36° Northeast  Level Estimated
Tue 08:08:00 PM 12.3035 -60.0708 36° Northeast  Level Estimated
Tue 08:09:00 PM 12.3585 -60.0297 36° Northeast  Level Estimated
Tue 08:10:00 PM 12.4135 -59.9886 36° Northeast  Level Estimated
Tue 08:11:00 PM 12.4685 -59.9474 36° Northeast  Level Estimated
Tue 08:12:00 PM 12.5235 -59.9062 36° Northeast  Level Estimated
Tue 08:13:00 PM 12.5785 -59.8651 36° Northeast  Level Estimated
Tue 08:14:00 PM 12.6335 -59.8239 36° Northeast  Level Estimated
Tue 08:15:00 PM 12.6884 -59.7826 36° Northeast  Level Estimated
Tue 08:16:00 PM 12.7434 -59.7414 36° Northeast  Level Estimated
Tue 08:17:00 PM 12.7984 -59.7002 36° Northeast  Level Estimated
Tue 08:18:00 PM 12.8533 -59.6589 36° Northeast  Level Estimated
Tue 08:18:07 PM 12.5890 -59.8540 36° Northeast 293 337 11,900  Level FlightAware ADS-B
Tue 08:18:47 PM 12.6390 -59.8270 28° Northeast 284 327 10,800 -1,553 Descending FlightAware ADS-B
Tue 08:19:32 PM 12.6910 -59.7980 29° Northeast 281 323 9,700 -1,543 Descending FlightAware ADS-B
Tue 08:19:57 PM 12.7200 -59.7820 28° Northeast 281 323 9,000 -1,440 Descending FlightAware ADS-B
Tue 08:20:22 PM 12.7440 -59.7680 30° Northeast 281 323 8,500 -600 Descending FlightAware ADS-B
Tue 08:20:47 PM 12.7720 -59.7530 28° Northeast 281 323 8,500  Level FlightAware ADS-B
Tue 08:21:17 PM 12.8010 -59.7370 28° Northeast 281 323 8,500  Level FlightAware ADS-B
Tue 08:21:47 PM 12.8300 -59.7210 28° Northeast 281 323 8,500  Level FlightAware ADS-B
Tue 08:22:17 PM 12.8600 -59.7050 27° Northeast 281 323 8,500  Level FlightAware ADS-B
Tue 08:24:00 PM 12.9441 -59.6217 44° Northeast  Level Estimated
Tue 08:25:00 PM 12.9932 -59.5732 44° Northeast  Level Estimated
Tue 08:26:00 PM 13.0422 -59.5246 44° Northeast  Level Estimated
Tue 08:27:00 PM 13.0746 -59.4925 44° Northeast  Level Estimated
Tue 08:28:00 PM 13.0746 -59.4925 52° Northeast  Level Estimated
Tue 08:29:00 PM 13.0746 -59.4925 52° Northeast  Level Estimated
Tue 08:30:00 PM 13.0746 -59.4925 52° Northeast  Level Estimated
Tue 08:31:00 PM 13.0746 -59.4925 52° Northeast  Level Estimated
Tue 08:32:00 PM 13.0746 -59.4925 52° Northeast  Level Estimated
Tue 08:33:00 PM 13.0746 -59.4925 52° Northeast  Level Estimated
Tue 08:34:00 PM 13.0746 -59.4925 52° Northeast  Level Estimated
Tue 08:35:00 PM 13.0746 -59.4925 52° Northeast  Level Estimated
Tue 08:36:00 PM 13.0746 -59.4925 52° Northeast  Level Estimated

Login

Don't have an account? Register now (free) for customized features, flight alerts, and more!